Airfield :
LOGIN :

Register | Disclaimer

   EN    FR    IT 

 










Legend :    VFR   Marginal VFR   IFR   Intensive IFR   Very Intensive IFR
Visi :
Ceiling :
>= 8 km
>= 3000ft
5 to 8 km
1000 to 3000 ft
1500m to 5 km
500 to 1000 ft
800 to 1500m
200 to 500 ft
< 800m
< 200 ft
Symbols :   Thunderstorms  Fog  Heavy snow  Heavy precipitations  Wind > 20 kt
SIGMETs :     Misc.  Thunderstorms  Icing  Turbulence  Mountain Waves  Volcanic Ashes







- Airport Elevation : 527 ft
- IATA code : DBV


LDDU - Dubrovnik

CURRENT METAR :
  • 241030Z 23009KT 150V260 CAVOK 30/17 Q1018 NOSIG

EXPIRED METARs :
  • 241000Z VRB03KT CAVOK 32/13 Q1018 BECMG 29008KT
  • 240930Z 03008KT 340V080 CAVOK 31/13 Q1018 BECMG 29008KT
  • 240900Z VRB09KT CAVOK 29/14 Q1018 BECMG 02010KT
  • 240830Z 02012KT 330V080 9999 FEW043 29/14 Q1018 NOSIG
  • 240800Z 03012KT 320V080 9999 FEW043 28/14 Q1018 NOSIG

TAF TAF LDDU
Valid from the 24 at 06:00 until the 25 at 06:00 UTC


240525Z 2406/2506 VRB02KT 9999 FEW040 TX30/2412Z TN25/2504Z
PROB30
TEMPO 2406/2418 02015KT -TSRA FEW035CB BKN040
BECMG 2410/2412 30008KT
BECMG 2419/2421 02012KT
No reported NOTAMs for that airfield.



MET'MAP, your aeronautical weather chart ! - Copyright ORBIFLY December 2007 - Disclaimer

ORBIFLY MET'MAP TEAM :

Programming & Development : Alexandra Zaïnal
Concept & Development : Baudouin d'Aumeries
Co-Development & Prog : Marc-Olivier Méhu
Technical & hardware support : Manuel Goepfert

Contact : metmap@orbifly.com




SOURCES & CREDITS :

   NOAA